Time;durP1;ratioP1;P1;durP2;ratioP2;P2;SDS_P1;SDS_P2;PMS_P1;PMS_P2;Temp;Humidity;BMP_temperature;BMP_pressure;BME280_temperature;BME280_humidity;BME280_pressure;Samples;Min_cycle;Max_cycle;Signal;HPM_P1;HPM_P2
2022/10/27 00:00:14;;;;;;;6.88;4.50;;;;;;;16.53;48.82;100368.06;4992581;28;20050;-79
2022/10/27 00:02:39;;;;;;;6.85;4.57;;;;;;;16.45;48.67;100375.41;4992328;28;20030;-79
2022/10/27 00:05:05;;;;;;;7.57;4.43;;;;;;;16.96;48.59;100447.91;4992090;28;20101;-79
2022/10/27 00:07:30;;;;;;;7.40;4.40;;;;;;;16.28;48.60;100337.53;4991958;28;20046;-79
2022/10/27 00:09:56;;;;;;;7.18;4.60;;;;;;;16.68;48.33;100402.63;4991807;28;20025;-79
2022/10/27 00:12:21;;;;;;;7.38;4.38;;;;;;;16.36;47.79;100355.25;4991937;28;20057;-79
2022/10/27 00:14:46;;;;;;;7.38;4.32;;;;;;;16.51;47.57;100396.75;4991971;28;20403;-79
2022/10/27 00:17:12;;;;;;;8.55;4.30;;;;;;;16.32;47.60;100369.94;4990858;28;20030;-79
2022/10/27 00:19:37;;;;;;;7.10;4.90;;;;;;;16.03;47.32;100341.69;4990610;28;20527;-79
2022/10/27 00:22:03;;;;;;;5.85;4.43;;;;;;;16.70;47.18;100450.44;4993054;28;20529;-79
2022/10/27 00:24:28;;;;;;;9.73;4.40;;;;;;;15.09;46.86;100198.16;4998483;28;20658;-79
2022/10/27 00:26:53;;;;;;;8.00;4.10;;;;;;;16.15;47.20;100386.25;4998435;28;20026;-79
2022/10/27 00:29:19;;;;;;;5.82;4.10;;;;;;;16.07;47.08;100409.53;4998231;28;20026;-79
2022/10/27 00:31:44;;;;;;;8.30;5.20;;;;;;;15.78;47.34;100365.25;4998162;28;20097;-79
2022/10/27 00:34:09;;;;;;;6.00;4.18;;;;;;;15.32;47.10;100330.16;5013284;28;20392;-80
2022/10/27 00:36:35;;;;;;;6.10;4.40;;;;;;;15.68;47.41;100375.41;4998285;28;20031;-79
2022/10/27 00:39:00;;;;;;;5.72;4.65;;;;;;;15.84;47.61;100401.75;5013443;28;20073;-79
2022/10/27 00:41:29;;;;;;;8.00;5.30;;;;;;;16.18;47.59;100448.97;4997152;28;20080;-79
2022/10/27 00:43:55;;;;;;;6.85;5.20;;;;;;;16.17;47.60;100457.97;4998392;28;20026;-79
2022/10/27 00:46:36;;;;;;;6.78;4.72;;;;;;;16.18;47.39;100446.31;4998319;28;20022;-79
2022/10/27 00:49:13;;;;;;;7.53;4.60;;;;;;;15.80;47.50;100398.66;4997988;28;20018;-80
2022/10/27 00:51:42;;;;;;;6.50;4.50;;;;;;;15.80;47.24;100398.66;4998075;28;20554;-79
2022/10/27 00:54:08;;;;;;;7.72;4.38;;;;;;;15.84;47.29;100425.72;4998310;28;20110;-79
2022/10/27 00:56:36;;;;;;;6.13;4.95;;;;;;;15.14;47.22;100307.47;4998257;28;20411;-79
2022/10/27 00:59:01;;;;;;;6.63;4.25;;;;;;;15.86;47.32;100456.47;4998040;28;20514;-79
2022/10/27 01:01:27;;;;;;;7.78;4.20;;;;;;;15.16;47.39;100325.91;4998068;28;20022;-79
2022/10/27 01:03:54;;;;;;;5.18;3.92;;;;;;;15.37;48.17;100380.97;4998183;28;20026;-80
2022/10/27 01:06:20;;;;;;;7.00;4.18;;;;;;;15.87;48.23;100450.13;5013067;28;20040;-79
2022/10/27 01:08:46;;;;;;;6.13;4.30;;;;;;;15.34;48.09;100376.84;4997881;28;20026;-79
2022/10/27 01:11:12;;;;;;;5.43;4.13;;;;;;;15.16;48.44;100324.06;5012883;28;20057;-79
2022/10/27 01:13:38;;;;;;;5.47;4.03;;;;;;;15.06;48.25;100315.56;4998010;28;20057;-79
2022/10/27 01:16:39;;;;;;;5.60;4.32;;;;;;;15.89;48.61;100457.94;5012936;28;20038;-80
2022/10/27 01:19:10;;;;;;;5.72;4.25;;;;;;;15.84;48.94;100460.34;4998024;28;20035;-79
2022/10/27 01:21:49;;;;;;;8.10;4.53;;;;;;;15.76;49.01;100461.28;4998099;28;20050;-79
2022/10/27 01:24:41;;;;;;;6.40;3.92;;;;;;;15.72;49.21;100459.19;4997659;28;20030;-79
2022/10/27 01:27:39;;;;;;;5.63;3.85;;;;;;;15.58;49.49;100459.03;5012831;28;20388;-79
2022/10/27 01:30:18;;;;;;;7.97;4.40;;;;;;;15.44;49.70;100443.06;4997901;28;20045;-79
2022/10/27 01:32:54;;;;;;;6.93;4.35;;;;;;;14.84;49.95;100359.06;4997767;28;20022;-79
2022/10/27 01:35:19;;;;;;;5.50;4.10;;;;;;;15.39;50.00;100462.25;4994065;28;20097;-79
2022/10/27 01:37:51;;;;;;;5.57;4.07;;;;;;;15.20;50.10;100434.41;4994871;28;20030;-79
2022/10/27 01:40:22;;;;;;;7.18;4.20;;;;;;;15.33;49.96;100463.00;4994815;28;20097;-79
2022/10/27 01:42:53;;;;;;;7.78;4.40;;;;;;;14.83;50.02;100395.44;4994817;28;20510;-79
2022/10/27 01:45:25;;;;;;;7.18;4.43;;;;;;;15.27;50.16;100467.22;4994582;28;20030;-79
2022/10/27 01:47:54;;;;;;;6.82;4.40;;;;;;;14.62;50.23;100347.53;4994503;28;20537;-80
2022/10/27 01:50:31;;;;;;;6.70;4.82;;;;;;;15.25;50.54;100469.25;4994425;28;20037;-79
2022/10/27 01:52:56;;;;;;;7.45;4.75;;;;;;;14.72;50.46;100381.81;4993120;28;20026;-80
2022/10/27 01:55:25;;;;;;;7.90;5.32;;;;;;;15.18;50.45;100448.91;5009455;28;20033;-80
2022/10/27 01:58:11;;;;;;;8.68;4.15;;;;;;;14.86;50.60;100412.88;4994366;28;20029;-80
2022/10/27 02:01:02;;;;;;;6.10;4.22;;;;;;;14.30;50.51;100320.28;4994499;28;20025;-80
2022/10/27 02:03:39;;;;;;;6.03;4.72;;;;;;;14.86;50.68;100436.78;4994412;28;20478;-80
2022/10/27 02:06:24;;;;;;;6.88;4.78;;;;;;;14.88;50.90;100453.41;4994339;28;20030;-80
2022/10/27 02:08:57;;;;;;;7.65;4.63;;;;;;;15.11;50.65;100471.94;4994178;28;20045;-80
2022/10/27 02:11:22;;;;;;;6.97;4.90;;;;;;;14.61;50.47;100391.88;4994434;28;20026;-80
2022/10/27 02:13:48;;;;;;;6.15;4.63;;;;;;;14.63;50.29;100392.53;4994122;28;20026;-80
2022/10/27 02:16:20;;;;;;;9.00;4.65;;;;;;;15.12;50.27;100479.72;4994171;28;20022;-80
2022/10/27 02:18:51;;;;;;;8.05;4.57;;;;;;;14.73;50.32;100413.50;4993720;28;20109;-80
2022/10/27 02:21:18;;;;;;;9.73;4.43;;;;;;;14.59;50.38;100409.03;4993785;28;20127;-80
2022/10/27 02:23:44;;;;;;;9.45;4.80;;;;;;;14.08;50.41;100325.66;4993833;28;20033;-80
2022/10/27 02:26:32;;;;;;;6.72;4.43;;;;;;;14.96;50.50;100481.75;4993850;28;20023;-80
2022/10/27 02:29:01;;;;;;;7.75;4.70;;;;;;;14.60;50.57;100453.19;4992146;28;20026;-80
2022/10/27 02:31:31;;;;;;;9.20;5.22;;;;;;;14.49;51.04;100448.31;4993895;28;20030;-80
2022/10/27 02:33:58;;;;;;;8.55;4.82;;;;;;;14.24;51.13;100398.06;4993761;28;20030;-79
2022/10/27 02:36:24;;;;;;;7.50;4.25;;;;;;;14.15;51.20;100400.97;5008729;28;20018;-80
2022/10/27 02:38:49;;;;;;;7.45;4.80;;;;;;;14.82;51.16;100517.94;4993496;28;20026;-80
2022/10/27 02:41:15;;;;;;;7.50;5.32;;;;;;;14.24;51.46;100429.09;5008447;28;20023;-80
2022/10/27 02:43:40;;;;;;;7.47;4.68;;;;;;;14.04;51.42;100396.06;4993407;28;20615;-80
2022/10/27 02:46:05;;;;;;;5.47;4.78;;;;;;;14.38;51.41;100456.72;4993353;28;20077;-80
2022/10/27 02:48:31;;;;;;;5.38;4.80;;;;;;;14.13;51.56;100427.72;4993485;28;20492;-80
2022/10/27 02:50:57;;;;;;;7.97;4.63;;;;;;;14.82;51.55;100534.72;4993357;28;20026;-80
2022/10/27 02:53:23;;;;;;;6.82;4.57;;;;;;;14.13;51.79;100433.03;4992224;28;20100;-80
2022/10/27 02:55:48;;;;;;;6.80;4.68;;;;;;;14.45;51.87;100492.22;4993394;28;20491;-80
2022/10/27 02:58:14;;;;;;;6.43;5.00;;;;;;;14.76;51.70;100542.59;4993239;28;20014;-80
2022/10/27 03:00:39;;;;;;;7.43;5.72;;;;;;;14.21;51.83;100442.75;4993104;28;20491;-80
2022/10/27 03:03:05;;;;;;;6.70;5.30;;;;;;;14.62;51.92;100531.75;4993107;28;20576;-80
2022/10/27 03:05:30;;;;;;;9.90;5.43;;;;;;;14.29;51.81;100470.06;4993007;28;20075;-80
2022/10/27 03:07:55;;;;;;;7.70;4.93;;;;;;;14.29;51.99;100486.00;4992819;28;20412;-80
2022/10/27 03:10:21;;;;;;;6.55;4.82;;;;;;;13.13;51.80;100291.56;4991854;28;20135;-79
2022/10/27 03:12:47;;;;;;;7.65;5.63;;;;;;;13.95;51.90;100443.91;4993146;28;20030;-80
2022/10/27 03:15:12;;;;;;;7.30;5.40;;;;;;;14.59;52.02;100520.66;5008013;28;20030;-80
2022/10/27 03:17:47;;;;;;;7.35;5.35;;;;;;;14.43;52.13;100495.03;4993018;28;20053;-80
2022/10/27 03:20:14;;;;;;;9.93;5.68;;;;;;;14.68;51.88;100538.16;4992701;28;20019;-80
2022/10/27 03:22:40;;;;;;;10.55;6.60;;;;;;;14.66;52.14;100536.69;4992869;28;20022;-80
2022/10/27 03:25:07;;;;;;;7.03;5.40;;;;;;;14.63;52.05;100540.53;4992668;28;20029;-80
2022/10/27 03:27:33;;;;;;;10.25;6.30;;;;;;;13.70;52.33;100413.25;4992736;28;20022;-80
2022/10/27 03:29:58;;;;;;;8.68;5.30;;;;;;;13.61;52.01;100369.22;4991487;28;20081;-80
2022/10/27 03:32:24;;;;;;;10.38;5.85;;;;;;;14.35;52.19;100515.50;4992697;28;20023;-80
2022/10/27 03:34:49;;;;;;;7.07;5.25;;;;;;;14.26;52.18;100482.88;4992724;28;20521;-79
2022/10/27 03:37:14;;;;;;;8.85;5.72;;;;;;;14.55;52.21;100536.13;4993115;28;20034;-80
2022/10/27 03:39:40;;;;;;;8.13;5.30;;;;;;;13.70;52.27;100407.94;4992564;28;20381;-79
2022/10/27 03:42:05;;;;;;;9.07;5.88;;;;;;;14.15;52.42;100516.00;4992582;28;20022;-80
2022/10/27 03:44:31;;;;;;;9.10;6.00;;;;;;;13.12;52.30;100339.47;4992415;28;20045;-79
2022/10/27 03:46:56;;;;;;;9.95;5.75;;;;;;;14.44;52.65;100549.84;4992439;28;20057;-80
2022/10/27 03:49:21;;;;;;;7.53;5.68;;;;;;;13.74;52.41;100445.56;4992427;28;20380;-80
2022/10/27 03:51:47;;;;;;;7.50;6.45;;;;;;;13.87;52.87;100478.50;4992212;28;20084;-80
2022/10/27 03:54:12;;;;;;;7.95;6.45;;;;;;;13.81;52.75;100471.25;4992214;28;20072;-80
2022/10/27 03:56:38;;;;;;;10.45;6.75;;;;;;;14.43;52.97;100566.78;4991861;28;20465;-79
2022/10/27 03:59:03;;;;;;;12.30;7.15;;;;;;;14.10;52.96;100515.66;4991893;28;20098;-79
2022/10/27 04:01:32;;;;;;;11.80;7.13;;;;;;;14.16;53.05;100552.19;4990878;28;20018;-80
2022/10/27 04:03:57;;;;;;;9.55;5.93;;;;;;;13.74;53.30;100496.84;4992217;28;20026;-80
2022/10/27 04:06:23;;;;;;;8.80;6.38;;;;;;;13.56;53.35;100475.03;4992064;28;20030;-80
2022/10/27 04:08:48;;;;;;;8.95;6.15;;;;;;;13.52;53.18;100476.41;4991881;28;20510;-80
2022/10/27 04:11:14;;;;;;;8.35;6.68;;;;;;;13.55;53.06;100468.09;4991957;28;20054;-80
2022/10/27 04:13:39;;;;;;;6.65;5.93;;;;;;;13.84;52.93;100520.50;4992048;28;20487;-80
2022/10/27 04:16:05;;;;;;;10.10;6.05;;;;;;;13.38;53.04;100429.34;4992315;28;20038;-80
2022/10/27 04:18:31;;;;;;;10.65;6.53;;;;;;;13.66;53.21;100492.41;4992061;28;20018;-80
2022/10/27 04:21:04;;;;;;;7.72;6.40;;;;;;;14.25;53.02;100603.41;5009571;28;20015;-80
2022/10/27 04:23:29;;;;;;;9.13;6.55;;;;;;;13.61;53.32;100493.94;4997329;28;20053;-79
2022/10/27 04:25:55;;;;;;;8.65;6.43;;;;;;;13.44;53.20;100482.56;4994415;28;20030;-80
2022/10/27 04:28:20;;;;;;;10.07;6.30;;;;;;;13.13;53.54;100421.50;4992030;28;20105;-80
2022/10/27 04:30:46;;;;;;;9.68;6.70;;;;;;;13.55;53.45;100486.66;4991939;28;20092;-80
2022/10/27 04:33:11;;;;;;;10.68;6.65;;;;;;;13.89;53.48;100560.63;4992065;28;20406;-80
2022/10/27 04:35:37;;;;;;;13.48;7.93;;;;;;;13.51;53.44;100485.34;4991912;28;20018;-80
2022/10/27 04:38:03;;;;;;;14.02;6.78;;;;;;;14.21;53.26;100600.28;4991832;28;20487;-79
2022/10/27 04:40:28;;;;;;;17.45;7.45;;;;;;;13.94;53.37;100548.47;4991754;28;20033;-79
2022/10/27 04:42:54;;;;;;;11.13;6.40;;;;;;;13.98;53.42;100556.91;5006622;28;20073;-80
2022/10/27 04:45:20;;;;;;;15.23;7.55;;;;;;;13.62;53.24;100495.56;4991518;28;20033;-80
2022/10/27 04:47:46;;;;;;;8.95;6.90;;;;;;;13.82;53.10;100517.19;4991574;28;20030;-80
2022/10/27 04:50:15;;;;;;;13.95;7.20;;;;;;;14.05;53.02;100551.72;4991645;28;20023;-80
2022/10/27 04:52:40;;;;;;;14.85;7.93;;;;;;;13.86;53.14;100519.31;4991558;28;20042;-80
2022/10/27 04:55:06;;;;;;;16.88;8.25;;;;;;;13.39;53.18;100434.53;4991466;28;20116;-80
2022/10/27 04:57:32;;;;;;;14.40;8.32;;;;;;;14.08;52.94;100556.69;4991656;28;20029;-80
2022/10/27 04:59:57;;;;;;;18.90;8.45;;;;;;;12.76;52.86;100318.81;5006629;28;20023;-80
2022/10/27 05:02:22;;;;;;;12.13;7.30;;;;;;;13.95;52.99;100512.13;4991782;28;20459;-80
2022/10/27 05:04:48;;;;;;;16.67;9.32;;;;;;;14.43;53.12;100590.69;4991538;28;20029;-80
2022/10/27 05:07:13;;;;;;;14.43;8.57;;;;;;;13.85;52.96;100506.22;4991380;28;20050;-80
2022/10/27 05:09:38;;;;;;;14.98;10.70;;;;;;;13.26;53.26;100411.19;4991198;28;20061;-80
2022/10/27 05:12:04;;;;;;;17.63;10.77;;;;;;;14.14;52.96;100574.59;5010126;28;20034;-80
2022/10/27 05:14:29;;;;;;;16.98;11.07;;;;;;;14.13;53.27;100559.66;5002078;28;20072;-79
2022/10/27 05:16:55;;;;;;;15.55;10.30;;;;;;;14.06;53.12;100548.91;5014522;28;20026;-80
2022/10/27 05:19:20;;;;;;;13.15;9.20;;;;;;;14.51;53.11;100629.69;5014401;28;20028;-79
2022/10/27 05:21:45;;;;;;;15.07;9.40;;;;;;;13.83;52.82;100543.56;5014584;28;20022;-80
2022/10/27 05:24:11;;;;;;;19.17;8.65;;;;;;;14.45;52.90;100625.88;5014577;28;20057;-80
2022/10/27 05:26:36;;;;;;;18.73;8.70;;;;;;;13.93;52.67;100536.19;5014558;28;20029;-80
2022/10/27 05:29:02;;;;;;;15.18;8.70;;;;;;;13.93;52.31;100528.22;5014334;28;20054;-80
2022/10/27 05:31:27;;;;;;;14.63;7.90;;;;;;;14.69;52.39;100648.81;5014501;28;20458;-80
2022/10/27 05:33:53;;;;;;;17.48;8.15;;;;;;;14.12;52.28;100566.81;5014095;28;20026;-80
2022/10/27 05:36:18;;;;;;;14.95;8.07;;;;;;;14.42;52.29;100618.28;5014531;28;20446;-80
2022/10/27 05:38:46;;;;;;;12.55;7.20;;;;;;;14.32;52.74;100658.31;5014261;28;20032;-80
2022/10/27 05:41:12;;;;;;;18.05;9.35;;;;;;;14.57;52.54;100643.06;5014872;28;20024;-80
2022/10/27 05:43:38;;;;;;;19.38;9.23;;;;;;;13.95;52.04;100541.34;5014188;28;20030;-80
2022/10/27 05:46:04;;;;;;;14.35;8.50;;;;;;;14.82;52.48;100680.94;5014426;28;20026;-79
2022/10/27 05:48:29;;;;;;;19.80;9.50;;;;;;;14.65;51.94;100652.81;5014300;28;20014;-79
2022/10/27 05:50:55;;;;;;;16.45;8.48;;;;;;;14.76;51.88;100652.41;5008387;28;20036;-80
2022/10/27 05:53:21;;;;;;;16.50;8.93;;;;;;;14.51;52.07;100581.84;4999219;28;20515;-79
2022/10/27 05:55:46;;;;;;;19.85;9.52;;;;;;;15.03;52.19;100668.84;5005269;28;20033;-79
2022/10/27 05:58:12;;;;;;;17.42;10.27;;;;;;;14.54;51.68;100569.03;5013440;28;20105;-80
2022/10/27 06:00:38;;;;;;;22.30;11.50;;;;;;;15.14;51.75;100668.41;5001748;28;20022;-80
2022/10/27 06:03:06;;;;;;;21.60;13.02;;;;;;;15.31;51.55;100674.41;5013676;28;20033;-79
2022/10/27 06:05:34;;;;;;;21.75;11.70;;;;;;;14.67;51.85;100575.56;5019648;28;20049;-79
2022/10/27 06:07:59;;;;;;;17.90;10.85;;;;;;;15.44;51.56;100679.94;5011991;28;20042;-78
2022/10/27 06:10:26;;;;;;;15.73;9.90;;;;;;;14.77;51.51;100563.66;5013748;28;21395;-80
2022/10/27 06:12:59;;;;;;;18.23;9.77;;;;;;;14.84;51.69;100577.91;5013664;28;20045;-80
2022/10/27 06:15:25;;;;;;;;;;;;;;;15.27;52.28;100701.38;5013242;28;20036;-80
2022/10/27 06:17:53;;;;;;;17.65;8.68;;;;;;;14.72;51.84;100623.69;4995497;28;20298;-80
2022/10/27 06:20:19;;;;;;;12.27;8.23;;;;;;;13.80;51.92;100435.06;5008824;28;20031;-80
2022/10/27 06:22:47;;;;;;;17.50;8.68;;;;;;;15.22;51.61;100637.22;5002677;28;20383;-80
2022/10/27 06:25:13;;;;;;;17.65;9.55;;;;;;;15.08;51.70;100611.44;5013774;28;20036;-80
2022/10/27 06:27:38;;;;;;;17.00;8.93;;;;;;;15.20;51.56;100625.94;5013754;28;20030;-80
2022/10/27 06:30:04;;;;;;;21.92;10.55;;;;;;;15.15;51.46;100590.25;5013993;28;20097;-80
2022/10/27 06:32:29;;;;;;;13.70;8.80;;;;;;;15.63;51.19;100674.13;5013455;28;20442;-79
2022/10/27 06:34:55;;;;;;;14.52;8.38;;;;;;;15.96;51.19;100711.88;5013040;28;20092;-80
2022/10/27 06:37:20;;;;;;;20.50;10.20;;;;;;;15.21;50.95;100587.69;5010416;28;20562;-79
2022/10/27 06:39:46;;;;;;;17.60;9.90;;;;;;;15.97;51.22;100702.88;5011645;28;20034;-81
2022/10/27 06:42:12;;;;;;;18.63;9.68;;;;;;;15.32;50.92;100577.59;5011185;28;20061;-79
2022/10/27 06:44:37;;;;;;;14.98;8.88;;;;;;;15.49;51.21;100609.16;5011640;28;20064;-80
2022/10/27 06:47:02;;;;;;;11.23;8.80;;;;;;;15.46;51.12;100603.38;5012771;28;20052;-79
2022/10/27 06:49:28;;;;;;;12.38;8.48;;;;;;;14.47;51.00;100426.44;5011334;28;20030;-80
2022/10/27 06:51:54;;;;;;;13.00;8.68;;;;;;;16.22;50.76;100714.03;5009189;28;20471;-80
2022/10/27 06:54:19;;;;;;;15.82;10.25;;;;;;;15.94;50.72;100654.47;5010523;28;20029;-79
2022/10/27 06:56:46;;;;;;;14.13;9.45;;;;;;;16.01;50.75;100660.69;5011854;28;20030;-80
2022/10/27 06:59:11;;;;;;;19.75;15.45;;;;;;;16.11;50.32;100654.06;5007061;28;20418;-79
2022/10/27 07:01:36;;;;;;;19.63;13.75;;;;;;;16.03;50.35;100632.84;5007362;28;20029;-80
2022/10/27 07:04:02;;;;;;;12.10;8.75;;;;;;;16.42;50.08;100728.47;5003759;28;20432;-79
2022/10/27 07:06:27;;;;;;;9.95;7.97;;;;;;;16.67;49.80;100715.66;5000236;28;20026;-79
2022/10/27 07:08:53;;;;;;;11.10;8.05;;;;;;;15.95;49.98;100603.66;5008494;28;20117;-79
2022/10/27 07:11:18;;;;;;;13.98;8.43;;;;;;;16.66;49.91;100710.50;5009827;28;20038;-79
2022/10/27 07:13:44;;;;;;;11.77;7.75;;;;;;;16.33;49.77;100665.59;5003280;28;20069;-79
2022/10/27 07:16:09;;;;;;;10.90;7.80;;;;;;;16.20;49.58;100606.81;5009388;28;20025;-79
2022/10/27 07:18:37;;;;;;;13.15;8.02;;;;;;;16.47;49.56;100648.75;5010488;28;20029;-79
2022/10/27 07:21:05;;;;;;;9.45;7.75;;;;;;;16.94;49.60;100713.25;5003915;28;20025;-79
2022/10/27 07:23:30;;;;;;;12.75;8.43;;;;;;;16.76;49.37;100681.69;4998165;28;20535;-78
2022/10/27 07:25:56;;;;;;;9.90;7.93;;;;;;;16.55;49.41;100649.66;5004113;28;20022;-78
2022/10/27 07:28:21;;;;;;;10.68;7.80;;;;;;;16.38;49.49;100631.22;5007918;28;20029;-79
2022/10/27 07:30:47;;;;;;;13.57;9.43;;;;;;;17.12;49.56;100730.47;5011479;28;20108;-79
2022/10/27 07:33:13;;;;;;;10.48;8.25;;;;;;;15.71;49.37;100510.78;5010211;28;20667;-80
2022/10/27 07:35:39;;;;;;;11.82;8.85;;;;;;;17.25;49.56;100739.63;5010891;28;20026;-80
2022/10/27 07:38:06;;;;;;;11.70;9.23;;;;;;;16.93;49.32;100682.25;5011311;28;20081;-79
2022/10/27 07:40:32;;;;;;;9.52;7.63;;;;;;;16.86;49.32;100682.19;5009703;28;20099;-79
2022/10/27 07:42:59;;;;;;;7.75;6.90;;;;;;;16.55;48.95;100612.31;5037340;28;20112;-79
2022/10/27 07:45:25;;;;;;;11.23;7.97;;;;;;;17.37;48.91;100743.41;5000807;28;20034;-79
2022/10/27 07:47:53;;;;;;;9.68;6.80;;;;;;;17.36;49.10;100744.44;5009633;28;20032;-79
2022/10/27 07:50:20;;;;;;;10.10;7.10;;;;;;;17.21;49.13;100731.19;5009441;28;20021;-79
2022/10/27 07:52:49;;;;;;;10.73;9.30;;;;;;;17.09;49.25;100711.34;5009349;28;20033;-79
2022/10/27 07:55:16;;;;;;;13.73;7.78;;;;;;;17.41;49.13;100748.19;5009904;28;20026;-79
2022/10/27 07:57:42;;;;;;;13.88;8.93;;;;;;;17.22;49.26;100719.47;5010839;28;20033;-79
2022/10/27 08:00:13;;;;;;;15.57;10.18;;;;;;;17.44;49.28;100745.13;5011092;28;20033;-79
2022/10/27 08:02:38;;;;;;;18.73;14.45;;;;;;;17.49;48.97;100744.53;5007703;28;20490;-80
2022/10/27 08:05:05;;;;;;;12.32;7.75;;;;;;;16.98;48.88;100669.16;5009389;28;20092;-79
2022/10/27 08:07:30;;;;;;;16.08;10.68;;;;;;;17.57;48.85;100759.59;5008654;28;20453;-79
2022/10/27 08:09:56;;;;;;;11.82;8.32;;;;;;;16.90;48.65;100643.44;5009387;28;20026;-79
2022/10/27 08:12:21;;;;;;;12.88;7.85;;;;;;;17.44;48.54;100715.75;5007422;28;20054;-79
2022/10/27 08:14:50;;;;;;;12.52;9.45;;;;;;;17.68;48.48;100751.91;5000995;28;20015;-79
2022/10/27 08:17:15;;;;;;;12.25;6.93;;;;;;;17.70;48.08;100717.81;5005513;28;20034;-79
2022/10/27 08:19:41;;;;;;;12.55;8.50;;;;;;;17.28;47.89;100622.63;5009710;28;20033;-79
2022/10/27 08:22:06;;;;;;;10.50;6.70;;;;;;;17.78;47.74;100688.28;5010633;28;20037;-79
2022/10/27 08:24:32;;;;;;;10.52;7.85;;;;;;;17.86;47.56;100681.97;5010963;28;20109;-79
2022/10/27 08:26:57;;;;;;;8.10;6.20;;;;;;;18.09;47.57;100711.06;4999953;28;20030;-79
2022/10/27 08:29:22;;;;;;;13.25;7.72;;;;;;;18.47;47.21;100740.00;5001471;28;20049;-79
2022/10/27 08:31:48;;;;;;;10.13;6.55;;;;;;;17.35;47.02;100545.25;4998114;28;20018;-79
2022/10/27 08:34:13;;;;;;;9.65;6.32;;;;;;;18.26;46.76;100679.47;4997446;28;20490;-79
2022/10/27 08:36:39;;;;;;;8.77;6.25;;;;;;;17.99;46.20;100598.38;5009151;28;20059;-79
2022/10/27 08:39:05;;;;;;;11.65;6.78;;;;;;;18.95;46.24;100738.97;4994867;28;20022;-79
2022/10/27 08:41:42;;;;;;;10.23;6.07;;;;;;;19.07;45.80;100733.84;4990993;28;20092;-79
2022/10/27 08:44:52;;;;;;;8.77;5.30;;;;;;;19.09;45.59;100720.25;4995891;28;20031;-79
2022/10/27 08:47:27;;;;;;;7.95;5.38;;;;;;;19.26;45.43;100735.69;4994030;28;20711;-79
2022/10/27 08:50:12;;;;;;;7.97;5.50;;;;;;;19.38;45.45;100730.56;4997602;28;20419;-79
2022/10/27 08:52:43;;;;;;;5.72;4.32;;;;;;;18.94;45.13;100654.34;4995757;28;20030;-79
2022/10/27 08:55:11;;;;;;;11.02;7.32;;;;;;;19.53;44.71;100735.75;5003077;28;20519;-79
2022/10/27 08:57:39;;;;;;;8.88;4.40;;;;;;;19.23;44.40;100671.84;5012822;28;20109;-79
2022/10/27 09:00:11;;;;;;;10.57;5.22;;;;;;;19.34;44.42;100684.63;5012626;28;20054;-79
2022/10/27 09:02:36;;;;;;;19.52;12.13;;;;;;;19.64;44.37;100724.41;5013335;28;20029;-79
2022/10/27 09:05:51;;;;;;;19.80;12.85;;;;;;;19.71;44.36;100735.94;5004379;28;20495;-79
2022/10/27 09:08:58;;;;;;;10.68;9.15;;;;;;;19.80;44.34;100710.56;4992878;28;20130;-78
2022/10/27 09:11:26;;;;;;;10.50;8.48;;;;;;;20.00;44.04;100721.22;4973826;28;20523;-79
2022/10/27 09:14:31;;;;;;;13.75;9.80;;;;;;;20.11;43.87;100723.28;5007636;28;20537;-79
2022/10/27 09:17:07;;;;;;;8.65;5.30;;;;;;;20.08;42.88;100712.16;5001146;28;20026;-79
2022/10/27 09:19:42;;;;;;;7.03;5.85;;;;;;;19.51;43.37;100623.41;5007517;28;20022;-78
2022/10/27 09:22:15;;;;;;;9.93;7.03;;;;;;;20.06;43.18;100704.28;5012842;28;20028;-79
2022/10/27 09:24:40;;;;;;;14.38;11.63;;;;;;;20.15;43.11;100686.97;5007161;28;20022;-80
2022/10/27 09:27:08;;;;;;;9.45;5.25;;;;;;;19.09;43.01;100501.56;5006826;28;20018;-79
2022/10/27 09:29:36;;;;;;;8.32;4.50;;;;;;;20.10;42.84;100645.75;5010342;28;20083;-79
2022/10/27 09:32:12;;;;;;;7.05;4.10;;;;;;;20.50;42.19;100681.25;5006019;28;20033;-79
2022/10/27 09:34:43;;;;;;;7.75;4.00;;;;;;;20.00;42.53;100592.53;5014075;28;20034;-79
2022/10/27 09:37:19;;;;;;;5.60;4.15;;;;;;;20.42;41.25;100671.59;5006253;28;20028;-78
2022/10/27 09:39:49;;;;;;;6.05;4.35;;;;;;;20.16;42.07;100628.78;5006077;28;20545;-79
2022/10/27 09:42:16;;;;;;;9.83;6.80;;;;;;;20.48;42.08;100675.28;5002114;28;20525;-78
2022/10/27 09:44:53;;;;;;;7.80;5.20;;;;;;;20.62;41.95;100682.22;5013839;28;20272;-79
2022/10/27 09:47:21;;;;;;;9.90;5.60;;;;;;;20.81;41.85;100699.25;5009984;28;20410;-78
2022/10/27 09:49:47;;;;;;;6.18;4.18;;;;;;;20.41;41.51;100613.63;5012368;28;20518;-79
2022/10/27 09:52:24;;;;;;;7.25;4.00;;;;;;;20.46;40.37;100626.38;5009201;28;20030;-79
2022/10/27 09:54:53;;;;;;;9.10;4.68;;;;;;;20.94;41.22;100693.78;5009122;28;20053;-79
2022/10/27 09:57:20;;;;;;;5.93;4.75;;;;;;;20.86;40.95;100668.03;5023284;28;20034;-79
2022/10/27 09:59:55;;;;;;;5.80;3.88;;;;;;;20.74;40.77;100624.13;5014753;28;20072;-79
2022/10/27 10:02:29;;;;;;;7.68;3.88;;;;;;;21.20;40.19;100698.13;5013579;28;20064;-80
2022/10/27 10:04:55;;;;;;;7.00;3.95;;;;;;;21.11;40.45;100665.34;5012358;28;20406;-79
2022/10/27 10:07:36;;;;;;;6.65;4.40;;;;;;;21.31;40.36;100689.38;5013458;28;20515;-79
2022/10/27 10:10:04;;;;;;;5.23;3.30;;;;;;;21.33;40.02;100690.00;5016851;28;20018;-78
2022/10/27 10:12:30;;;;;;;4.10;3.22;;;;;;;21.29;40.16;100678.03;5012008;28;20032;-79
2022/10/27 10:15:10;;;;;;;6.93;4.43;;;;;;;21.47;40.04;100685.31;5010345;28;20033;-79
2022/10/27 10:17:38;;;;;;;10.30;4.22;;;;;;;20.74;39.76;100557.03;5018138;28;20403;-77
2022/10/27 10:20:06;;;;;;;5.43;4.45;;;;;;;21.62;39.92;100682.31;5001383;28;20041;-77
2022/10/27 10:22:34;;;;;;;8.45;5.15;;;;;;;21.38;39.66;100644.47;5009647;28;20029;-79
2022/10/27 10:25:22;;;;;;;8.85;5.45;;;;;;;21.73;38.74;100673.50;5013168;28;20022;-79
2022/10/27 10:28:01;;;;;;;4.97;3.88;;;;;;;21.23;39.37;100604.53;5012245;28;20026;-79
2022/10/27 10:30:31;;;;;;;6.38;4.20;;;;;;;21.28;39.20;100585.06;5011861;28;20380;-79
2022/10/27 10:32:56;;;;;;;6.55;3.83;;;;;;;21.29;39.20;100573.28;5013236;28;20034;-78
2022/10/27 10:35:45;;;;;;;7.68;4.13;;;;;;;21.94;39.02;100666.84;5012435;28;20519;-79
2022/10/27 10:38:33;;;;;;;7.60;3.95;;;;;;;21.67;38.96;100612.56;5010936;28;20092;-79
2022/10/27 10:40:58;;;;;;;5.57;3.80;;;;;;;22.05;38.70;100672.31;5011556;28;21454;-79
2022/10/27 10:43:23;;;;;;;4.63;4.10;;;;;;;21.64;38.83;100592.34;5012865;28;20096;-79
2022/10/27 10:45:52;;;;;;;5.43;3.65;;;;;;;20.93;38.64;100474.69;5012848;28;20028;-79
2022/10/27 10:48:28;;;;;;;7.50;3.70;;;;;;;21.83;38.57;100607.41;5010848;28;20029;-78
2022/10/27 10:50:53;;;;;;;6.90;3.75;;;;;;;21.40;38.36;100531.41;4999184;28;20030;-79
2022/10/27 10:53:41;;;;;;;6.32;4.07;;;;;;;21.32;37.94;100510.22;5012834;28;20033;-78
2022/10/27 10:56:36;;;;;;;7.30;4.25;;;;;;;22.22;37.96;100652.88;4992899;28;20525;-79
2022/10/27 10:59:16;;;;;;;5.30;4.22;;;;;;;22.19;38.37;100651.44;4993124;28;20038;-79
2022/10/27 11:02:00;;;;;;;7.45;5.90;;;;;;;22.20;38.46;100650.41;5010967;28;20022;-79
2022/10/27 11:04:30;;;;;;;5.68;4.07;;;;;;;22.18;38.44;100653.31;5012259;28;20030;-79
2022/10/27 11:07:15;;;;;;;5.85;4.22;;;;;;;22.01;38.53;100619.19;5012371;28;20053;-79
2022/10/27 11:09:58;;;;;;;8.32;4.57;;;;;;;22.16;37.75;100641.16;5012322;28;20026;-79
2022/10/27 11:12:42;;;;;;;4.38;3.38;;;;;;;22.13;37.80;100645.09;5010189;28;20479;-78
2022/10/27 11:15:27;;;;;;;7.53;4.15;;;;;;;22.12;37.90;100645.34;5011071;28;20018;-80
2022/10/27 11:17:58;;;;;;;4.97;2.70;;;;;;;22.07;38.03;100637.13;5012214;28;20018;-79
2022/10/27 11:20:32;;;;;;;8.25;3.72;;;;;;;21.72;38.09;100600.09;5010700;28;20061;-79
2022/10/27 11:22:59;;;;;;;4.38;3.35;;;;;;;22.03;38.02;100635.94;5011993;28;20026;-78
2022/10/27 11:25:29;;;;;;;3.97;3.38;;;;;;;22.03;37.90;100635.94;5012192;28;20487;-78
2022/10/27 11:28:15;;;;;;;5.00;3.97;;;;;;;21.93;37.78;100630.25;5012139;28;20075;-78
2022/10/27 11:31:08;;;;;;;3.97;3.10;;;;;;;21.80;38.00;100620.47;5010812;28;20101;-79